Accueil
METAR-TAF:

METAR-TAF

Aéroports :

Buochs, Suisse

latitude: 46-58-28N, longitude: 8-23-49E, altitude: 449 m

Observation

Le bulletin a été fait il y a 10 minutes, à 21:50 UTC
Vent 2 kt de ouest
Température -1°C
Humidité 80%
Pression 1016 hPa
Visibilité 10 km ou plus
Ciel couvert à une hauteur de 7000 ft
Nuages épars à une hauteur de 12000 ft

METAR: LSZC 202150Z AUTO 27002KT 9999 OVC070 SCT120 M01/M04 Q1016

Heure: 23:00 (22:00 UTC)


TAF: absent

Observations et prévisions météorologiques de plus de 4000 aéroports (messages METAR et TAF).

Les stations disponibles sont représentées par des disques jaunes et rouges sur la carte.

Passer la souris dessus pour voir le nom de la station.

Cliquer dessus pour voir les observations et prévisions météorologiques.

Pour changer de carte: cliquez sur les boutons verts avec une croix noire pour zoomer, sur le bouton vert avec un tiret pour effectuer un zoom arrière, ou sur les flèches vertes pour les cartes adjacentes.


METAR-TAF: